sensor_id;sensor_type;location;lat;lon;timestamp;pressure;altitude;pressure_sealevel;temperature;humidity
69796;BME280;57073;45.650;9.612;2023-03-24T00:04:05;99220.97;;;12.45;54.60
69796;BME280;57073;45.650;9.612;2023-03-24T00:09:05;99220.63;;;12.42;53.63
69796;BME280;57073;45.650;9.612;2023-03-24T00:14:06;99226.75;;;12.32;55.11
69796;BME280;57073;45.650;9.612;2023-03-24T00:19:12;99224.34;;;12.36;54.43
69796;BME280;57073;45.650;9.612;2023-03-24T00:24:15;99227.06;;;12.19;55.55
69796;BME280;57073;45.650;9.612;2023-03-24T00:29:15;99233.38;;;12.24;55.28
69796;BME280;57073;45.650;9.612;2023-03-24T00:34:16;99225.31;;;12.07;56.11
69796;BME280;57073;45.650;9.612;2023-03-24T00:39:18;99226.59;;;12.22;55.11
69796;BME280;57073;45.650;9.612;2023-03-24T00:44:19;99217.47;;;11.89;57.13
69796;BME280;57073;45.650;9.612;2023-03-24T00:49:22;99209.44;;;11.77;58.16
69796;BME280;57073;45.650;9.612;2023-03-24T00:54:41;99201.69;;;12.20;56.56
69796;BME280;57073;45.650;9.612;2023-03-24T00:59:42;99210.75;;;12.30;56.81
69796;BME280;57073;45.650;9.612;2023-03-24T01:04:52;99200.19;;;12.29;56.74
69796;BME280;57073;45.650;9.612;2023-03-24T01:09:53;99190.50;;;12.33;55.76
69796;BME280;57073;45.650;9.612;2023-03-24T01:15:00;99196.22;;;12.37;55.77
69796;BME280;57073;45.650;9.612;2023-03-24T01:20:02;99197.44;;;12.46;55.79
69796;BME280;57073;45.650;9.612;2023-03-24T01:25:19;99190.00;;;12.36;56.18
69796;BME280;57073;45.650;9.612;2023-03-24T01:30:23;99187.31;;;12.36;56.12
69796;BME280;57073;45.650;9.612;2023-03-24T01:35:24;99174.28;;;12.33;56.26
69796;BME280;57073;45.650;9.612;2023-03-24T01:40:30;99167.50;;;12.08;57.53
69796;BME280;57073;45.650;9.612;2023-03-24T01:51:04;99153.75;;;12.32;55.90
69796;BME280;57073;45.650;9.612;2023-03-24T01:56:06;99158.13;;;12.16;56.34
69796;BME280;57073;45.650;9.612;2023-03-24T02:01:07;99152.28;;;12.24;56.93
69796;BME280;57073;45.650;9.612;2023-03-24T02:06:08;99148.19;;;12.22;57.11
69796;BME280;57073;45.650;9.612;2023-03-24T02:11:08;99152.78;;;12.21;56.81
69796;BME280;57073;45.650;9.612;2023-03-24T02:26:51;99134.38;;;12.18;56.78
69796;BME280;57073;45.650;9.612;2023-03-24T02:47:48;99123.41;;;11.86;57.08
69796;BME280;57073;45.650;9.612;2023-03-24T02:58:27;99114.38;;;11.58;57.41
69796;BME280;57073;45.650;9.612;2023-03-24T03:03:38;99108.28;;;11.51;58.23
69796;BME280;57073;45.650;9.612;2023-03-24T03:08:41;99111.06;;;11.56;57.82
69796;BME280;57073;45.650;9.612;2023-03-24T03:13:47;99103.47;;;11.53;58.01
69796;BME280;57073;45.650;9.612;2023-03-24T03:18:55;99093.06;;;11.45;57.74
69796;BME280;57073;45.650;9.612;2023-03-24T03:24:08;99086.06;;;11.44;58.05
69796;BME280;57073;45.650;9.612;2023-03-24T03:29:17;99083.28;;;11.38;57.94
69796;BME280;57073;45.650;9.612;2023-03-24T03:39:37;99080.31;;;11.40;58.39
69796;BME280;57073;45.650;9.612;2023-03-24T03:44:40;99067.81;;;11.34;58.61
69796;BME280;57073;45.650;9.612;2023-03-24T03:49:41;99071.81;;;11.31;59.09
69796;BME280;57073;45.650;9.612;2023-03-24T03:54:42;99071.94;;;11.19;58.78
69796;BME280;57073;45.650;9.612;2023-03-24T03:59:43;99076.34;;;11.09;59.06
69796;BME280;57073;45.650;9.612;2023-03-24T04:21:25;99064.31;;;10.99;58.29
69796;BME280;57073;45.650;9.612;2023-03-24T04:26:16;99071.34;;;11.00;57.88
69796;BME280;57073;45.650;9.612;2023-03-24T04:31:30;99065.28;;;10.93;58.61
69796;BME280;57073;45.650;9.612;2023-03-24T04:36:44;99078.69;;;10.88;59.18
69796;BME280;57073;45.650;9.612;2023-03-24T04:41:50;99077.53;;;10.84;57.98
69796;BME280;57073;45.650;9.612;2023-03-24T04:46:55;99091.75;;;10.79;58.44
69796;BME280;57073;45.650;9.612;2023-03-24T04:51:56;99097.97;;;10.80;58.96
69796;BME280;57073;45.650;9.612;2023-03-24T04:56:58;99095.34;;;10.68;58.81
69796;BME280;57073;45.650;9.612;2023-03-24T05:02:01;99102.72;;;10.73;58.69
69796;BME280;57073;45.650;9.612;2023-03-24T05:07:02;99104.44;;;10.79;59.78
69796;BME280;57073;45.650;9.612;2023-03-24T05:12:03;99088.91;;;10.86;58.76
69796;BME280;57073;45.650;9.612;2023-03-24T05:17:03;99100.13;;;10.95;58.86
69796;BME280;57073;45.650;9.612;2023-03-24T05:22:03;99098.56;;;10.99;59.19
69796;BME280;57073;45.650;9.612;2023-03-24T05:27:04;99102.25;;;11.10;58.81
69796;BME280;57073;45.650;9.612;2023-03-24T05:32:04;99105.38;;;11.18;59.15
69796;BME280;57073;45.650;9.612;2023-03-24T05:37:04;99110.53;;;11.20;59.55
69796;BME280;57073;45.650;9.612;2023-03-24T05:42:06;99112.31;;;11.31;59.22
69796;BME280;57073;45.650;9.612;2023-03-24T05:47:06;99121.38;;;11.42;59.90
69796;BME280;57073;45.650;9.612;2023-03-24T05:52:08;99121.22;;;11.49;60.55
69796;BME280;57073;45.650;9.612;2023-03-24T05:57:14;99131.31;;;11.70;60.29
69796;BME280;57073;45.650;9.612;2023-03-24T06:02:14;99134.13;;;11.81;60.93
69796;BME280;57073;45.650;9.612;2023-03-24T06:07:15;99129.75;;;11.97;60.71
69796;BME280;57073;45.650;9.612;2023-03-24T06:12:15;99130.63;;;12.02;60.95
69796;BME280;57073;45.650;9.612;2023-03-24T06:17:16;99131.09;;;12.16;60.48
69796;BME280;57073;45.650;9.612;2023-03-24T06:22:17;99135.81;;;12.26;60.49
69796;BME280;57073;45.650;9.612;2023-03-24T06:27:17;99144.22;;;12.29;60.43
69796;BME280;57073;45.650;9.612;2023-03-24T06:32:20;99143.03;;;12.42;60.69
69796;BME280;57073;45.650;9.612;2023-03-24T06:37:21;99135.03;;;12.52;60.63
69796;BME280;57073;45.650;9.612;2023-03-24T06:42:22;99133.03;;;12.65;60.42
69796;BME280;57073;45.650;9.612;2023-03-24T06:47:22;99137.91;;;12.68;60.88
69796;BME280;57073;45.650;9.612;2023-03-24T06:52:22;99142.44;;;12.62;61.50
69796;BME280;57073;45.650;9.612;2023-03-24T06:57:23;99154.53;;;12.77;60.94
69796;BME280;57073;45.650;9.612;2023-03-24T07:02:24;99149.38;;;12.75;60.98
69796;BME280;57073;45.650;9.612;2023-03-24T07:07:24;99144.97;;;12.69;61.44
69796;BME280;57073;45.650;9.612;2023-03-24T07:12:25;99145.19;;;12.89;60.63
69796;BME280;57073;45.650;9.612;2023-03-24T07:17:25;99151.00;;;13.03;60.18
69796;BME280;57073;45.650;9.612;2023-03-24T07:22:25;99159.53;;;13.17;59.88
69796;BME280;57073;45.650;9.612;2023-03-24T07:27:26;99152.31;;;13.28;59.14
69796;BME280;57073;45.650;9.612;2023-03-24T07:32:28;99162.06;;;13.29;58.97
69796;BME280;57073;45.650;9.612;2023-03-24T07:37:29;99170.75;;;13.31;58.90
69796;BME280;57073;45.650;9.612;2023-03-24T07:42:30;99161.00;;;13.30;58.83
69796;BME280;57073;45.650;9.612;2023-03-24T07:47:30;99154.19;;;13.27;59.21
69796;BME280;57073;45.650;9.612;2023-03-24T07:52:31;99155.50;;;13.20;58.91
69796;BME280;57073;45.650;9.612;2023-03-24T07:57:31;99161.72;;;13.20;58.99
69796;BME280;57073;45.650;9.612;2023-03-24T08:02:34;99171.00;;;13.29;58.29
69796;BME280;57073;45.650;9.612;2023-03-24T08:07:35;99188.38;;;13.34;58.03
69796;BME280;57073;45.650;9.612;2023-03-24T08:12:35;99186.69;;;13.27;58.38
69796;BME280;57073;45.650;9.612;2023-03-24T08:17:36;99193.66;;;13.18;57.55
69796;BME280;57073;45.650;9.612;2023-03-24T08:22:36;99187.69;;;13.16;57.17
69796;BME280;57073;45.650;9.612;2023-03-24T08:27:39;99181.44;;;12.88;56.94
69796;BME280;57073;45.650;9.612;2023-03-24T08:32:45;99183.59;;;13.14;56.37
69796;BME280;57073;45.650;9.612;2023-03-24T08:37:46;99183.06;;;13.17;56.01
69796;BME280;57073;45.650;9.612;2023-03-24T08:42:51;99189.78;;;13.09;56.62
69796;BME280;57073;45.650;9.612;2023-03-24T08:47:54;99184.59;;;13.07;56.42
69796;BME280;57073;45.650;9.612;2023-03-24T08:52:55;99180.63;;;13.15;56.38
69796;BME280;57073;45.650;9.612;2023-03-24T08:57:56;99185.53;;;13.18;56.11
69796;BME280;57073;45.650;9.612;2023-03-24T09:02:56;99187.97;;;13.20;55.97
69796;BME280;57073;45.650;9.612;2023-03-24T09:07:57;99203.19;;;13.26;55.43
69796;BME280;57073;45.650;9.612;2023-03-24T09:12:59;99206.78;;;13.32;55.50
69796;BME280;57073;45.650;9.612;2023-03-24T09:18:00;99197.53;;;13.27;55.41
69796;BME280;57073;45.650;9.612;2023-03-24T09:23:01;99208.19;;;13.39;55.37
69796;BME280;57073;45.650;9.612;2023-03-24T09:28:02;99207.94;;;13.41;55.39
69796;BME280;57073;45.650;9.612;2023-03-24T09:33:03;99205.44;;;13.34;55.44
69796;BME280;57073;45.650;9.612;2023-03-24T09:38:03;99201.31;;;13.59;55.16
69796;BME280;57073;45.650;9.612;2023-03-24T09:48:27;99192.66;;;13.94;54.82
69796;BME280;57073;45.650;9.612;2023-03-24T09:53:45;99182.41;;;14.01;54.39
69796;BME280;57073;45.650;9.612;2023-03-24T09:58:59;99192.59;;;14.32;53.42
69796;BME280;57073;45.650;9.612;2023-03-24T10:04:01;99192.31;;;14.28;53.03
69796;BME280;57073;45.650;9.612;2023-03-24T10:09:25;99192.88;;;14.35;53.18
69796;BME280;57073;45.650;9.612;2023-03-24T10:30:35;99191.25;;;13.86;52.59
69796;BME280;57073;45.650;9.612;2023-03-24T10:36:30;99176.97;;;13.64;52.96
69796;BME280;57073;45.650;9.612;2023-03-24T10:41:15;99185.13;;;14.07;53.17
69796;BME280;57073;45.650;9.612;2023-03-24T10:46:20;99177.38;;;14.20;52.87
69796;BME280;57073;45.650;9.612;2023-03-24T10:51:26;99177.13;;;14.32;52.48
69796;BME280;57073;45.650;9.612;2023-03-24T10:56:42;99177.22;;;14.53;51.99
69796;BME280;57073;45.650;9.612;2023-03-24T11:01:45;99162.63;;;14.64;51.95
69796;BME280;57073;45.650;9.612;2023-03-24T11:07:16;99156.41;;;14.79;51.24
69796;BME280;57073;45.650;9.612;2023-03-24T11:12:21;99157.28;;;15.05;51.65
69796;BME280;57073;45.650;9.612;2023-03-24T11:17:22;99145.88;;;15.29;51.16
69796;BME280;57073;45.650;9.612;2023-03-24T11:22:24;99134.50;;;15.37;50.46
69796;BME280;57073;45.650;9.612;2023-03-24T11:27:26;99146.44;;;15.36;50.09
69796;BME280;57073;45.650;9.612;2023-03-24T11:32:26;99147.50;;;15.66;50.34
69796;BME280;57073;45.650;9.612;2023-03-24T11:37:31;99147.78;;;15.85;49.78
69796;BME280;57073;45.650;9.612;2023-03-24T11:42:33;99146.41;;;15.67;48.93
69796;BME280;57073;45.650;9.612;2023-03-24T11:47:36;99132.56;;;15.58;49.34
69796;BME280;57073;45.650;9.612;2023-03-24T11:52:48;99125.19;;;15.79;48.84
69796;BME280;57073;45.650;9.612;2023-03-24T12:53:02;99021.28;;;15.98;48.86
69796;BME280;57073;45.650;9.612;2023-03-24T13:03:20;99026.69;;;16.08;47.95
69796;BME280;57073;45.650;9.612;2023-03-24T13:08:24;99019.53;;;16.22;48.34
69796;BME280;57073;45.650;9.612;2023-03-24T13:13:37;99013.28;;;16.22;47.00
69796;BME280;57073;45.650;9.612;2023-03-24T13:18:42;99013.09;;;16.08;46.92
69796;BME280;57073;45.650;9.612;2023-03-24T13:23:54;98994.66;;;16.39;47.45
69796;BME280;57073;45.650;9.612;2023-03-24T13:34:04;98989.00;;;16.70;46.76
69796;BME280;57073;45.650;9.612;2023-03-24T13:39:13;98971.47;;;16.47;46.54
69796;BME280;57073;45.650;9.612;2023-03-24T13:44:21;98960.41;;;16.38;46.38
69796;BME280;57073;45.650;9.612;2023-03-24T13:49:22;98950.06;;;16.40;45.84
69796;BME280;57073;45.650;9.612;2023-03-24T13:54:25;98933.28;;;16.23;46.43
69796;BME280;57073;45.650;9.612;2023-03-24T14:15:48;98912.75;;;16.06;45.59
69796;BME280;57073;45.650;9.612;2023-03-24T14:25:55;98907.50;;;16.15;46.09
69796;BME280;57073;45.650;9.612;2023-03-24T14:36:17;98928.22;;;16.11;46.21
69796;BME280;57073;45.650;9.612;2023-03-24T14:41:29;98927.81;;;15.83;46.17
69796;BME280;57073;45.650;9.612;2023-03-24T14:46:39;98909.31;;;15.85;46.42
69796;BME280;57073;45.650;9.612;2023-03-24T14:51:44;98907.69;;;15.89;46.85
69796;BME280;57073;45.650;9.612;2023-03-24T14:56:51;98906.59;;;15.90;45.90
69796;BME280;57073;45.650;9.612;2023-03-24T15:01:59;98899.03;;;15.82;46.38
69796;BME280;57073;45.650;9.612;2023-03-24T15:07:02;98899.56;;;15.74;46.56
69796;BME280;57073;45.650;9.612;2023-03-24T15:12:03;98899.84;;;15.72;46.26
69796;BME280;57073;45.650;9.612;2023-03-24T15:17:15;98908.00;;;15.72;46.71
69796;BME280;57073;45.650;9.612;2023-03-24T15:22:17;98909.31;;;15.85;46.66
69796;BME280;57073;45.650;9.612;2023-03-24T15:27:25;98908.53;;;15.85;46.50
69796;BME280;57073;45.650;9.612;2023-03-24T15:32:28;98896.44;;;16.01;46.54
69796;BME280;57073;45.650;9.612;2023-03-24T15:37:39;98897.31;;;15.96;46.72
69796;BME280;57073;45.650;9.612;2023-03-24T15:42:43;98908.13;;;16.02;46.79
69796;BME280;57073;45.650;9.612;2023-03-24T15:47:45;98895.59;;;16.11;45.87
69796;BME280;57073;45.650;9.612;2023-03-24T15:52:57;98891.72;;;16.17;45.92
69796;BME280;57073;45.650;9.612;2023-03-24T15:57:59;98894.47;;;16.12;45.90
69796;BME280;57073;45.650;9.612;2023-03-24T16:03:02;98884.13;;;16.14;45.89
69796;BME280;57073;45.650;9.612;2023-03-24T16:08:06;98899.25;;;15.91;46.40
69796;BME280;57073;45.650;9.612;2023-03-24T16:13:22;98910.53;;;16.08;46.33
69796;BME280;57073;45.650;9.612;2023-03-24T16:18:32;98910.84;;;16.02;46.63
69796;BME280;57073;45.650;9.612;2023-03-24T16:23:32;98910.94;;;15.91;46.84
69796;BME280;57073;45.650;9.612;2023-03-24T16:28:33;98924.59;;;15.81;46.30
69796;BME280;57073;45.650;9.612;2023-03-24T16:33:33;98921.59;;;15.83;46.46
69796;BME280;57073;45.650;9.612;2023-03-24T16:38:34;98917.06;;;15.57;46.79
69796;BME280;57073;45.650;9.612;2023-03-24T16:43:35;98903.47;;;15.57;47.30
69796;BME280;57073;45.650;9.612;2023-03-24T16:48:36;98906.72;;;15.59;47.29
69796;BME280;57073;45.650;9.612;2023-03-24T16:53:36;98905.94;;;15.54;47.18
69796;BME280;57073;45.650;9.612;2023-03-24T16:58:37;98901.09;;;15.46;47.23
69796;BME280;57073;45.650;9.612;2023-03-24T17:03:37;98894.81;;;15.45;47.33
69796;BME280;57073;45.650;9.612;2023-03-24T17:08:39;98873.16;;;15.35;47.90
69796;BME280;57073;45.650;9.612;2023-03-24T17:13:40;98867.16;;;15.38;49.14
69796;BME280;57073;45.650;9.612;2023-03-24T17:18:40;98849.22;;;15.42;48.30
69796;BME280;57073;45.650;9.612;2023-03-24T17:23:42;98832.41;;;15.35;47.50
69796;BME280;57073;45.650;9.612;2023-03-24T17:28:43;98829.84;;;15.04;47.80
69796;BME280;57073;45.650;9.612;2023-03-24T17:33:43;98861.00;;;15.17;48.49
69796;BME280;57073;45.650;9.612;2023-03-24T17:38:43;98875.13;;;15.19;47.80
69796;BME280;57073;45.650;9.612;2023-03-24T17:43:47;98882.22;;;15.10;48.25
69796;BME280;57073;45.650;9.612;2023-03-24T17:48:48;98886.84;;;15.09;47.81
69796;BME280;57073;45.650;9.612;2023-03-24T17:53:48;98889.00;;;15.07;48.21
69796;BME280;57073;45.650;9.612;2023-03-24T17:58:49;98884.13;;;15.04;48.64
69796;BME280;57073;45.650;9.612;2023-03-24T18:03:54;98874.88;;;15.05;49.17
69796;BME280;57073;45.650;9.612;2023-03-24T18:08:55;98875.19;;;14.98;49.09
69796;BME280;57073;45.650;9.612;2023-03-24T18:13:56;98883.03;;;15.00;49.30
69796;BME280;57073;45.650;9.612;2023-03-24T18:18:57;98882.81;;;14.91;48.89
69796;BME280;57073;45.650;9.612;2023-03-24T18:23:57;98872.22;;;14.90;48.67
69796;BME280;57073;45.650;9.612;2023-03-24T18:28:58;98871.66;;;14.93;49.14
69796;BME280;57073;45.650;9.612;2023-03-24T18:33:58;98867.06;;;14.93;49.14
69796;BME280;57073;45.650;9.612;2023-03-24T18:39:01;98878.72;;;14.83;49.50
69796;BME280;57073;45.650;9.612;2023-03-24T18:44:05;98899.91;;;14.87;48.99
69796;BME280;57073;45.650;9.612;2023-03-24T18:49:06;98895.81;;;14.89;48.74
69796;BME280;57073;45.650;9.612;2023-03-24T18:54:10;98887.94;;;14.98;48.58
69796;BME280;57073;45.650;9.612;2023-03-24T18:59:10;98891.50;;;14.88;49.13
69796;BME280;57073;45.650;9.612;2023-03-24T19:04:10;98883.63;;;14.87;49.23
69796;BME280;57073;45.650;9.612;2023-03-24T19:09:11;98894.47;;;14.81;49.21
69796;BME280;57073;45.650;9.612;2023-03-24T19:14:12;98892.31;;;14.68;49.07
69796;BME280;57073;45.650;9.612;2023-03-24T19:19:12;98899.09;;;14.76;48.61
69796;BME280;57073;45.650;9.612;2023-03-24T19:24:13;98902.38;;;14.68;48.91
69796;BME280;57073;45.650;9.612;2023-03-24T19:29:13;98896.69;;;14.64;48.63
69796;BME280;57073;45.650;9.612;2023-03-24T19:34:14;98911.34;;;14.48;49.51
69796;BME280;57073;45.650;9.612;2023-03-24T19:39:14;98914.03;;;14.53;48.99
69796;BME280;57073;45.650;9.612;2023-03-24T19:44:16;98922.72;;;14.39;49.47
69796;BME280;57073;45.650;9.612;2023-03-24T19:49:17;98924.91;;;14.48;49.43
69796;BME280;57073;45.650;9.612;2023-03-24T19:54:18;98921.66;;;14.40;48.85
69796;BME280;57073;45.650;9.612;2023-03-24T19:59:18;98918.94;;;14.40;49.41
69796;BME280;57073;45.650;9.612;2023-03-24T20:04:18;98926.81;;;14.32;49.18
69796;BME280;57073;45.650;9.612;2023-03-24T20:09:19;98921.09;;;14.28;49.82
69796;BME280;57073;45.650;9.612;2023-03-24T20:14:20;98915.13;;;14.16;49.62
69796;BME280;57073;45.650;9.612;2023-03-24T20:19:20;98919.44;;;14.07;50.24
69796;BME280;57073;45.650;9.612;2023-03-24T20:24:21;98924.56;;;13.93;50.19
69796;BME280;57073;45.650;9.612;2023-03-24T20:29:22;98919.97;;;13.98;50.34
69796;BME280;57073;45.650;9.612;2023-03-24T20:34:22;98922.69;;;13.98;50.42
69796;BME280;57073;45.650;9.612;2023-03-24T20:39:22;98921.03;;;13.92;50.29
69796;BME280;57073;45.650;9.612;2023-03-24T20:44:23;98931.34;;;13.90;50.55
69796;BME280;57073;45.650;9.612;2023-03-24T20:49:23;98929.09;;;13.77;50.64
69796;BME280;57073;45.650;9.612;2023-03-24T20:54:24;98927.50;;;13.81;50.76
69796;BME280;57073;45.650;9.612;2023-03-24T20:59:25;98926.13;;;13.78;51.51
69796;BME280;57073;45.650;9.612;2023-03-24T21:04:25;98929.16;;;13.87;50.78
69796;BME280;57073;45.650;9.612;2023-03-24T21:09:26;98926.13;;;13.78;51.39
69796;BME280;57073;45.650;9.612;2023-03-24T21:14:26;98922.03;;;13.65;51.55
69796;BME280;57073;45.650;9.612;2023-03-24T21:19:28;98913.91;;;13.71;51.32
69796;BME280;57073;45.650;9.612;2023-03-24T21:24:29;98919.31;;;13.65;51.96
69796;BME280;57073;45.650;9.612;2023-03-24T21:29:29;98900.88;;;13.67;51.45
69796;BME280;57073;45.650;9.612;2023-03-24T21:34:30;98915.56;;;13.72;51.57
69796;BME280;57073;45.650;9.612;2023-03-24T21:39:30;98917.16;;;13.73;51.61
69796;BME280;57073;45.650;9.612;2023-03-24T21:44:31;98924.22;;;13.68;51.61
69796;BME280;57073;45.650;9.612;2023-03-24T21:49:33;98927.47;;;13.71;51.25
69796;BME280;57073;45.650;9.612;2023-03-24T21:54:33;98913.88;;;13.55;52.38
69796;BME280;57073;45.650;9.612;2023-03-24T21:59:33;98908.91;;;13.37;52.81
69796;BME280;57073;45.650;9.612;2023-03-24T22:04:36;98913.31;;;13.53;52.39
69796;BME280;57073;45.650;9.612;2023-03-24T22:09:37;98906.84;;;13.59;51.99
69796;BME280;57073;45.650;9.612;2023-03-24T22:14:38;98904.06;;;13.44;52.45
69796;BME280;57073;45.650;9.612;2023-03-24T22:19:38;98919.59;;;13.59;51.90
69796;BME280;57073;45.650;9.612;2023-03-24T22:24:38;98907.59;;;13.49;52.75
69796;BME280;57073;45.650;9.612;2023-03-24T22:29:39;98910.31;;;13.49;52.93
69796;BME280;57073;45.650;9.612;2023-03-24T22:34:40;98897.63;;;13.55;52.43
69796;BME280;57073;45.650;9.612;2023-03-24T22:39:40;98894.91;;;13.50;52.72
69796;BME280;57073;45.650;9.612;2023-03-24T22:44:40;98905.19;;;13.58;52.77
69796;BME280;57073;45.650;9.612;2023-03-24T22:49:41;98911.72;;;13.57;53.16
69796;BME280;57073;45.650;9.612;2023-03-24T22:54:41;98906.81;;;13.54;52.36
69796;BME280;57073;45.650;9.612;2023-03-24T22:59:42;98908.41;;;13.45;53.57
69796;BME280;57073;45.650;9.612;2023-03-24T23:04:42;98899.75;;;13.43;53.59
69796;BME280;57073;45.650;9.612;2023-03-24T23:09:44;98916.03;;;13.58;53.04
69796;BME280;57073;45.650;9.612;2023-03-24T23:14:44;98917.13;;;13.52;53.08
69796;BME280;57073;45.650;9.612;2023-03-24T23:19:45;98911.66;;;13.47;53.21
69796;BME280;57073;45.650;9.612;2023-03-24T23:24:45;98916.47;;;13.29;54.25
69796;BME280;57073;45.650;9.612;2023-03-24T23:29:47;98912.75;;;13.41;53.76
69796;BME280;57073;45.650;9.612;2023-03-24T23:34:47;98918.41;;;13.39;54.18
69796;BME280;57073;45.650;9.612;2023-03-24T23:39:49;98912.75;;;13.41;54.53
69796;BME280;57073;45.650;9.612;2023-03-24T23:44:50;98911.41;;;13.48;54.15
69796;BME280;57073;45.650;9.612;2023-03-24T23:49:50;98902.75;;;13.52;54.03
69796;BME280;57073;45.650;9.612;2023-03-24T23:54:50;98898.09;;;13.42;54.57
69796;BME280;57073;45.650;9.612;2023-03-24T23:59:52;98887.28;;;13.42;54.99
